createdAt,value
2022-09-25T00:01:31.992Z,14.33
2022-09-25T00:04:00.477Z,10.50
2022-09-25T00:06:30.141Z,11.17
2022-09-25T00:08:59.297Z,10.03
2022-09-25T00:11:31.366Z,11.90
2022-09-25T00:14:01.207Z,10.90
2022-09-25T00:16:31.745Z,13.43
2022-09-25T00:19:18.402Z,9.63
2022-09-25T00:21:53.091Z,8.40
2022-09-25T00:24:22.296Z,13.00
2022-09-25T00:26:52.169Z,10.93
2022-09-25T00:29:21.528Z,11.23
2022-09-25T00:31:49.753Z,13.30
2022-09-25T00:34:17.925Z,13.17
2022-09-25T00:36:46.210Z,11.97
2022-09-25T00:39:14.973Z,9.13
2022-09-25T00:41:43.099Z,11.37
2022-09-25T00:44:44.196Z,7.37
2022-09-25T00:47:16.660Z,14.50
2022-09-25T00:49:45.486Z,9.53
2022-09-25T00:52:14.723Z,11.67
2022-09-25T00:54:45.826Z,7.63
2022-09-25T00:57:18.986Z,9.13
2022-09-25T00:59:51.869Z,11.90
2022-09-25T01:02:26.447Z,7.43
2022-09-25T01:04:57.575Z,8.07
2022-09-25T01:07:26.341Z,12.90
2022-09-25T01:10:03.284Z,10.20
2022-09-25T01:12:31.614Z,9.00
2022-09-25T01:15:00.088Z,10.77
2022-09-25T01:17:36.444Z,10.33
2022-09-25T01:20:17.492Z,9.27
2022-09-25T01:23:00.059Z,16.33
2022-09-25T01:25:41.365Z,13.27
2022-09-25T01:28:26.280Z,11.83
2022-09-25T01:31:03.397Z,10.60
2022-09-25T01:33:36.307Z,9.47
2022-09-25T01:36:13.216Z,13.53
2022-09-25T01:38:46.406Z,10.90
2022-09-25T01:41:22.579Z,14.87
2022-09-25T01:43:57.610Z,10.93
2022-09-25T01:46:30.502Z,14.57
2022-09-25T01:49:03.581Z,12.87
2022-09-25T01:51:37.398Z,10.60
2022-09-25T01:54:10.654Z,11.87
2022-09-25T01:56:43.882Z,14.97
2022-09-25T01:59:18.040Z,10.40
2022-09-25T02:01:48.823Z,10.43
2022-09-25T02:04:21.805Z,13.20
2022-09-25T02:06:52.134Z,7.57
2022-09-25T02:09:26.825Z,12.03
2022-09-25T02:11:58.778Z,15.63
2022-09-25T02:14:32.757Z,14.13
2022-09-25T02:17:06.389Z,10.93
2022-09-25T02:19:52.258Z,14.90
2022-09-25T02:22:24.705Z,15.43
2022-09-25T02:24:59.313Z,16.23
2022-09-25T02:27:29.553Z,32.20
2022-09-25T02:29:58.947Z,13.23
2022-09-25T02:32:32.349Z,14.23
2022-09-25T02:35:01.191Z,15.67
2022-09-25T02:37:29.840Z,16.63
2022-09-25T02:40:01.807Z,17.00
2022-09-25T02:42:39.160Z,21.77
2022-09-25T02:45:16.409Z,14.63
2022-09-25T02:47:58.607Z,14.53
2022-09-25T02:50:30.228Z,18.97
2022-09-25T02:53:06.926Z,13.27
2022-09-25T02:55:40.109Z,11.07
2022-09-25T02:58:13.611Z,13.33
2022-09-25T03:00:46.210Z,16.87
2022-09-25T03:03:20.445Z,16.00
2022-09-25T03:05:51.184Z,14.10
2022-09-25T03:08:38.982Z,12.50
2022-09-25T03:11:08.836Z,12.73
2022-09-25T03:13:37.527Z,13.47
2022-09-25T03:16:09.535Z,11.17
2022-09-25T03:18:39.179Z,7.80
2022-09-25T03:21:07.583Z,11.07
2022-09-25T03:23:35.858Z,12.50
2022-09-25T03:26:04.720Z,11.37
2022-09-25T03:28:33.548Z,9.03
2022-09-25T03:31:03.338Z,10.00
2022-09-25T03:33:36.261Z,11.13
2022-09-25T03:36:12.386Z,9.43
2022-09-25T03:38:42.014Z,8.27
2022-09-25T03:41:11.911Z,7.50
2022-09-25T03:43:41.330Z,10.40
2022-09-25T03:46:11.999Z,12.93
2022-09-25T03:48:41.550Z,10.67
2022-09-25T03:51:11.492Z,8.70
2022-09-25T03:53:40.325Z,12.87
2022-09-25T03:56:11.971Z,15.50
2022-09-25T03:58:40.162Z,10.30
2022-09-25T04:01:08.921Z,9.87
2022-09-25T04:03:37.684Z,10.63
2022-09-25T04:06:07.191Z,15.17
2022-09-25T04:08:38.122Z,11.43
2022-09-25T04:11:07.018Z,10.73
2022-09-25T04:13:37.259Z,12.33
2022-09-25T04:16:08.297Z,10.53
2022-09-25T04:18:37.030Z,11.73
2022-09-25T04:21:07.485Z,11.27
2022-09-25T04:23:37.871Z,11.20
2022-09-25T04:26:06.640Z,16.10
2022-09-25T04:28:35.657Z,11.10
2022-09-25T04:31:04.384Z,11.03
2022-09-25T04:33:47.542Z,10.67
2022-09-25T04:36:19.081Z,11.07
2022-09-25T04:38:49.095Z,14.60
2022-09-25T04:41:19.978Z,13.93
2022-09-25T04:43:49.056Z,12.03
2022-09-25T04:46:22.004Z,15.20
2022-09-25T04:48:51.027Z,12.67
2022-09-25T04:51:19.383Z,14.87
2022-09-25T04:53:49.024Z,11.30
2022-09-25T04:56:17.725Z,14.07
2022-09-25T04:58:47.840Z,10.23
2022-09-25T05:01:17.362Z,12.00
2022-09-25T05:03:48.423Z,12.03
2022-09-25T05:06:17.336Z,18.90
2022-09-25T05:08:45.671Z,15.13
2022-09-25T05:11:15.181Z,11.73
2022-09-25T05:13:46.785Z,14.33
2022-09-25T05:16:15.429Z,9.73
2022-09-25T05:18:43.837Z,11.53
2022-09-25T05:21:12.019Z,12.93
2022-09-25T05:23:40.233Z,15.50
2022-09-25T05:26:09.420Z,14.73
2022-09-25T05:28:38.831Z,17.03
2022-09-25T05:31:07.730Z,14.20
2022-09-25T05:33:36.409Z,17.17
2022-09-25T05:36:06.490Z,9.80
2022-09-25T05:38:35.803Z,16.63
2022-09-25T05:41:05.135Z,11.77
2022-09-25T05:43:33.980Z,13.70
2022-09-25T05:46:03.813Z,13.70
2022-09-25T05:48:32.157Z,17.17
2022-09-25T05:51:00.634Z,14.43
2022-09-25T05:53:30.590Z,15.37
2022-09-25T05:56:01.039Z,13.63
2022-09-25T05:58:31.037Z,21.70
2022-09-25T06:01:03.953Z,18.93
2022-09-25T06:03:32.363Z,18.00
2022-09-25T06:06:00.999Z,14.40
2022-09-25T06:08:31.523Z,16.57
2022-09-25T06:11:00.746Z,15.83
2022-09-25T06:13:29.349Z,14.17
2022-09-25T06:15:57.960Z,17.10
2022-09-25T06:18:27.884Z,14.43
2022-09-25T06:21:01.653Z,16.50
2022-09-25T06:23:30.515Z,18.07
2022-09-25T06:26:03.053Z,14.83
2022-09-25T06:28:31.838Z,17.37
2022-09-25T06:31:02.223Z,19.17
2022-09-25T06:33:32.138Z,19.60
2022-09-25T06:36:00.915Z,19.43
2022-09-25T06:38:29.606Z,14.73
2022-09-25T06:41:00.794Z,19.70
2022-09-25T06:43:30.328Z,16.30
2022-09-25T06:46:03.213Z,20.00
2022-09-25T06:48:32.953Z,17.50
2022-09-25T06:51:02.571Z,19.37
2022-09-25T06:53:31.121Z,14.90
2022-09-25T06:56:02.840Z,17.07
2022-09-25T06:58:31.680Z,17.53
2022-09-25T07:01:00.225Z,17.37
2022-09-25T07:03:45.812Z,17.77
2022-09-25T07:06:17.872Z,18.73
2022-09-25T07:08:48.356Z,14.60
2022-09-25T07:11:18.060Z,17.03
2022-09-25T07:13:46.433Z,13.03
2022-09-25T07:16:16.332Z,16.50
2022-09-25T07:18:44.980Z,17.23
2022-09-25T07:21:16.695Z,14.40
2022-09-25T07:23:45.517Z,14.73
2022-09-25T07:26:15.645Z,12.03
2022-09-25T07:28:45.300Z,16.37
2022-09-25T07:31:15.732Z,11.87
2022-09-25T07:33:44.024Z,16.90
2022-09-25T07:36:14.632Z,7.83
2022-09-25T07:38:43.073Z,11.13
2022-09-25T07:41:13.514Z,11.10
2022-09-25T07:43:43.861Z,14.23
2022-09-25T07:46:13.172Z,11.70
2022-09-25T07:48:41.579Z,11.20
2022-09-25T07:51:12.657Z,10.30
2022-09-25T07:53:42.725Z,10.30
2022-09-25T07:56:12.233Z,12.07
2022-09-25T07:58:41.271Z,15.00
2022-09-25T08:01:13.653Z,15.97
2022-09-25T08:03:42.014Z,11.43
2022-09-25T08:06:13.233Z,10.73
2022-09-25T08:08:44.170Z,17.03
2022-09-25T08:11:13.457Z,13.33
2022-09-25T08:13:42.625Z,13.93
2022-09-25T08:16:13.817Z,13.97
2022-09-25T08:18:44.175Z,12.80
2022-09-25T08:21:14.394Z,12.00
2022-09-25T08:23:47.958Z,10.33
2022-09-25T08:26:26.043Z,12.57
2022-09-25T08:28:54.397Z,9.03
2022-09-25T08:31:22.850Z,6.67
2022-09-25T08:33:51.872Z,8.13
2022-09-25T08:36:20.322Z,7.78
2022-09-25T08:38:49.884Z,7.43
2022-09-25T08:41:23.822Z,4.77
2022-09-25T08:44:00.030Z,3.37
2022-09-25T08:46:58.023Z,5.47
2022-09-25T08:49:29.181Z,9.55
2022-09-25T08:52:02.576Z,6.60
2022-09-25T08:54:34.950Z,6.63
2022-09-25T08:57:13.382Z,7.95
2022-09-25T08:59:44.962Z,12.18
2022-09-25T09:02:16.611Z,6.22
2022-09-25T09:04:47.847Z,11.60
2022-09-25T09:07:28.289Z,7.70
2022-09-25T09:10:03.263Z,9.73
2022-09-25T09:12:38.374Z,4.87
2022-09-25T09:15:18.495Z,5.93
2022-09-25T09:17:46.706Z,7.70
2022-09-25T09:20:18.637Z,5.70
2022-09-25T09:22:52.827Z,10.15
2022-09-25T09:25:29.315Z,9.27
2022-09-25T09:28:20.096Z,8.52
2022-09-25T09:30:58.085Z,3.30
2022-09-25T09:33:39.165Z,5.80
2022-09-25T09:36:14.567Z,10.48
2022-09-25T09:38:50.655Z,5.15
2022-09-25T09:41:49.552Z,2.45
2022-09-25T09:44:38.855Z,4.40
2022-09-25T09:47:22.631Z,7.70
2022-09-25T09:49:56.083Z,7.80
2022-09-25T09:52:26.949Z,4.07
2022-09-25T09:55:00.811Z,7.82
2022-09-25T09:57:33.722Z,2.95
2022-09-25T10:00:05.808Z,4.10
2022-09-25T10:02:40.018Z,6.55
2022-09-25T10:05:16.876Z,5.25
2022-09-25T10:07:47.524Z,5.88
2022-09-25T10:10:17.416Z,9.35
2022-09-25T10:12:50.936Z,8.05
2022-09-25T10:15:28.334Z,4.18
2022-09-25T10:17:59.815Z,6.10
2022-09-25T10:20:42.518Z,4.38
2022-09-25T10:23:26.821Z,6.05
2022-09-25T10:25:56.338Z,8.13
2022-09-25T10:28:30.276Z,5.55
2022-09-25T10:30:59.967Z,8.23
2022-09-25T10:33:30.547Z,5.55
2022-09-25T10:35:59.066Z,1.35
2022-09-25T10:38:38.432Z,2.30
2022-09-25T10:41:09.703Z,5.07
2022-09-25T10:43:52.022Z,1.20
2022-09-25T10:46:48.875Z,2.67
2022-09-25T10:49:51.678Z,4.72
2022-09-25T10:52:21.292Z,2.65
2022-09-25T10:54:52.438Z,3.35
2022-09-25T10:57:35.861Z,5.97
2022-09-25T11:00:20.089Z,2.25
2022-09-25T11:02:53.328Z,2.47
2022-09-25T11:05:24.534Z,3.72
2022-09-25T11:07:55.798Z,1.60
2022-09-25T11:10:26.927Z,9.43
2022-09-25T11:12:56.671Z,2.38
2022-09-25T11:15:28.440Z,2.83
2022-09-25T11:17:58.605Z,4.50
2022-09-25T11:20:30.534Z,1.75
2022-09-25T11:23:16.262Z,4.35
2022-09-25T11:25:50.284Z,2.13
2022-09-25T11:28:26.210Z,4.00
2022-09-25T11:31:02.226Z,5.57
2022-09-25T11:33:42.171Z,7.60
2022-09-25T11:36:16.827Z,6.28
2022-09-25T11:39:06.477Z,5.03
2022-09-25T11:41:42.601Z,4.55
2022-09-25T11:44:20.709Z,3.85
2022-09-25T11:46:57.056Z,3.97
2022-09-25T11:49:28.538Z,4.85
2022-09-25T11:52:32.552Z,4.50
2022-09-25T11:55:36.456Z,6.45
2022-09-25T11:58:16.213Z,4.20
2022-09-25T12:00:53.995Z,5.15
2022-09-25T12:03:35.816Z,4.47
2022-09-25T12:06:32.022Z,3.33
2022-09-25T12:09:16.764Z,3.15
2022-09-25T12:11:54.799Z,5.10
2022-09-25T12:14:31.748Z,4.32
2022-09-25T12:17:08.216Z,4.88
2022-09-25T12:19:48.092Z,2.80
2022-09-25T12:22:23.751Z,3.15
2022-09-25T12:25:04.596Z,2.90
2022-09-25T12:27:45.377Z,3.92
2022-09-25T12:30:19.764Z,8.43
2022-09-25T12:33:02.347Z,8.25
2022-09-25T12:35:47.654Z,6.10
2022-09-25T12:38:35.653Z,6.85
2022-09-25T12:41:10.900Z,7.57
2022-09-25T12:43:43.797Z,5.40
2022-09-25T12:46:21.507Z,7.38
2022-09-25T12:48:53.034Z,7.38
2022-09-25T12:51:27.634Z,8.10
2022-09-25T12:53:59.032Z,5.13
2022-09-25T12:56:33.580Z,7.28
2022-09-25T12:59:11.134Z,7.30
2022-09-25T13:01:46.669Z,5.78
2022-09-25T13:04:42.112Z,6.40
2022-09-25T13:07:18.517Z,4.32
2022-09-25T13:09:49.857Z,5.65
2022-09-25T13:12:27.231Z,3.83
2022-09-25T13:14:59.445Z,2.75
2022-09-25T13:17:27.852Z,7.80
2022-09-25T13:20:16.155Z,5.13
2022-09-25T13:22:46.211Z,2.53
2022-09-25T13:25:18.485Z,1.27
2022-09-25T13:27:47.822Z,3.60
2022-09-25T13:30:22.984Z,3.50
2022-09-25T13:32:53.162Z,4.35
2022-09-25T13:35:23.743Z,2.15
2022-09-25T13:37:56.127Z,1.48
2022-09-25T13:40:46.471Z,6.07
2022-09-25T13:43:20.908Z,4.43
2022-09-25T13:45:50.403Z,4.60
2022-09-25T13:48:37.812Z,1.95
2022-09-25T13:51:28.894Z,3.83
2022-09-25T13:54:03.177Z,6.22
2022-09-25T13:56:48.343Z,3.88
2022-09-25T13:59:38.665Z,3.17
2022-09-25T14:02:38.492Z,3.63
2022-09-25T14:05:07.537Z,3.30
2022-09-25T14:07:36.797Z,4.97
2022-09-25T14:10:12.544Z,2.72
2022-09-25T14:12:44.464Z,3.95
2022-09-25T14:15:25.238Z,1.15
2022-09-25T14:17:56.899Z,0.95
2022-09-25T14:20:33.419Z,2.33
2022-09-25T14:23:05.126Z,4.95
2022-09-25T14:25:36.429Z,5.30
2022-09-25T14:28:16.322Z,6.82
2022-09-25T14:30:56.757Z,2.22
2022-09-25T14:33:57.404Z,2.38
2022-09-25T14:36:37.123Z,3.38
2022-09-25T14:39:30.209Z,1.50
2022-09-25T14:42:33.767Z,5.70
2022-09-25T14:45:20.457Z,4.88
2022-09-25T14:47:51.941Z,2.72
2022-09-25T14:50:24.113Z,1.67
2022-09-25T14:52:55.545Z,3.08
2022-09-25T14:55:25.116Z,2.05
2022-09-25T14:57:58.229Z,2.05
2022-09-25T15:00:27.358Z,2.63
2022-09-25T15:02:58.227Z,4.20
2022-09-25T15:05:32.814Z,1.33
2022-09-25T15:08:02.710Z,3.78
2022-09-25T15:10:33.913Z,5.50
2022-09-25T15:13:15.824Z,3.88
2022-09-25T15:16:06.375Z,2.38
2022-09-25T15:18:37.821Z,4.22
2022-09-25T15:21:09.250Z,2.55
2022-09-25T15:23:38.915Z,3.03
2022-09-25T15:26:07.512Z,3.97
2022-09-25T15:28:40.116Z,1.80
2022-09-25T15:31:08.926Z,4.40
2022-09-25T15:33:38.997Z,7.63
2022-09-25T15:36:17.746Z,4.93
2022-09-25T15:38:52.920Z,8.27
2022-09-25T15:41:23.719Z,7.50
2022-09-25T15:44:05.406Z,8.73
2022-09-25T15:46:39.533Z,9.43
2022-09-25T15:49:07.994Z,9.02
2022-09-25T15:51:38.206Z,6.50
2022-09-25T15:54:20.127Z,5.38
2022-09-25T15:56:52.064Z,9.38
2022-09-25T15:59:25.147Z,5.15
2022-09-25T16:02:11.850Z,11.00
2022-09-25T16:04:47.086Z,8.85
2022-09-25T16:07:24.128Z,16.55
2022-09-25T16:09:53.317Z,16.55
2022-09-25T16:12:27.715Z,8.63
2022-09-25T16:14:59.074Z,8.05
2022-09-25T16:17:33.228Z,3.83
2022-09-25T16:20:08.041Z,8.13
2022-09-25T16:22:50.053Z,3.78
2022-09-25T16:25:24.697Z,8.63
2022-09-25T16:27:53.923Z,7.22
2022-09-25T16:30:24.793Z,8.53
2022-09-25T16:32:55.128Z,16.23
2022-09-25T16:35:33.556Z,16.42
2022-09-25T16:38:27.981Z,11.23
2022-09-25T16:41:05.636Z,6.60
2022-09-25T16:43:36.091Z,6.43
2022-09-25T16:46:14.409Z,9.23
2022-09-25T16:48:43.196Z,5.97
2022-09-25T16:51:15.791Z,5.60
2022-09-25T16:53:44.805Z,8.02
2022-09-25T16:56:21.607Z,8.55
2022-09-25T16:58:50.255Z,7.85
2022-09-25T17:01:20.495Z,6.70
2022-09-25T17:03:52.554Z,5.95
2022-09-25T17:06:22.609Z,8.50
2022-09-25T17:08:51.534Z,5.80
2022-09-25T17:11:21.490Z,8.70
2022-09-25T17:13:50.031Z,8.93
2022-09-25T17:16:22.335Z,4.60
2022-09-25T17:18:50.691Z,4.35
2022-09-25T17:21:20.121Z,5.00
2022-09-25T17:23:48.568Z,5.65
2022-09-25T17:26:19.551Z,8.05
2022-09-25T17:28:49.523Z,5.35
2022-09-25T17:31:21.403Z,8.33
2022-09-25T17:33:51.013Z,4.30
2022-09-25T17:36:19.541Z,5.10
2022-09-25T17:38:47.945Z,5.90
2022-09-25T17:41:20.819Z,10.40
2022-09-25T17:43:49.414Z,6.25
2022-09-25T17:46:19.155Z,3.88
2022-09-25T17:48:53.917Z,11.02
2022-09-25T17:51:25.177Z,5.30
2022-09-25T17:53:53.937Z,5.33
2022-09-25T17:56:22.726Z,9.00
2022-09-25T17:58:51.180Z,6.33
2022-09-25T18:01:22.162Z,7.87
2022-09-25T18:03:52.627Z,9.70
2022-09-25T18:06:21.447Z,6.75
2022-09-25T18:08:50.908Z,6.15
2022-09-25T18:11:19.502Z,6.33
2022-09-25T18:13:48.250Z,5.30
2022-09-25T18:16:19.275Z,6.53
2022-09-25T18:19:05.654Z,8.90
2022-09-25T18:21:52.776Z,7.30
2022-09-25T18:24:20.998Z,7.97
2022-09-25T18:26:50.006Z,9.67
2022-09-25T18:29:19.386Z,5.63
2022-09-25T18:31:48.448Z,7.63
2022-09-25T18:34:18.099Z,12.87
2022-09-25T18:36:49.344Z,8.03
2022-09-25T18:39:20.279Z,8.30
2022-09-25T18:41:49.328Z,6.60
2022-09-25T18:44:19.611Z,8.13
2022-09-25T18:46:48.044Z,10.38
2022-09-25T18:49:16.502Z,10.43
2022-09-25T18:51:44.841Z,10.87
2022-09-25T18:54:15.779Z,7.38
2022-09-25T18:56:44.073Z,10.27
2022-09-25T18:59:12.662Z,11.57
2022-09-25T19:01:41.621Z,10.52
2022-09-25T19:04:15.592Z,10.53
2022-09-25T19:06:45.078Z,9.40
2022-09-25T19:09:16.925Z,12.87
2022-09-25T19:11:46.009Z,10.45
2022-09-25T19:14:16.548Z,15.40
2022-09-25T19:16:46.387Z,9.50
2022-09-25T19:19:14.802Z,11.87
2022-09-25T19:21:44.687Z,14.20
2022-09-25T19:24:15.344Z,11.30
2022-09-25T19:26:44.342Z,9.90
2022-09-25T19:29:12.796Z,8.43
2022-09-25T19:31:41.157Z,10.00
2022-09-25T19:34:10.117Z,9.77
2022-09-25T19:36:38.532Z,11.23
2022-09-25T19:39:06.955Z,9.90
2022-09-25T19:41:39.103Z,11.43
2022-09-25T19:44:13.264Z,14.73
2022-09-25T19:46:42.932Z,10.47
2022-09-25T19:49:11.681Z,11.23
2022-09-25T19:51:40.520Z,9.27
2022-09-25T19:54:10.189Z,8.97
2022-09-25T19:56:42.164Z,6.20
2022-09-25T19:59:13.783Z,9.97
2022-09-25T20:01:43.002Z,11.63
2022-09-25T20:04:17.946Z,8.90
2022-09-25T20:06:48.548Z,6.23
2022-09-25T20:09:17.062Z,14.93
2022-09-25T20:11:47.143Z,9.67
2022-09-25T20:14:15.472Z,8.47
2022-09-25T20:16:44.014Z,7.70
2022-09-25T20:19:12.358Z,8.53
2022-09-25T20:21:41.518Z,7.57
2022-09-25T20:24:11.092Z,10.27
2022-09-25T20:26:40.044Z,8.73
2022-09-25T20:29:12.233Z,8.20
2022-09-25T20:31:41.909Z,8.07
2022-09-25T20:34:13.453Z,8.73
2022-09-25T20:36:41.910Z,8.83
2022-09-25T20:39:10.310Z,6.23
2022-09-25T20:41:38.743Z,8.70
2022-09-25T20:44:07.806Z,5.97
2022-09-25T20:46:37.660Z,8.13
2022-09-25T20:49:06.193Z,8.97
2022-09-25T20:51:36.018Z,9.63
2022-09-25T20:54:05.952Z,9.90
2022-09-25T20:56:35.271Z,13.03
2022-09-25T20:59:05.248Z,13.27
2022-09-25T21:01:36.595Z,4.77
2022-09-25T21:04:08.677Z,9.20
2022-09-25T21:06:38.715Z,11.57
2022-09-25T21:09:09.533Z,11.53
2022-09-25T21:11:40.429Z,5.33
2022-09-25T21:14:11.579Z,7.23
2022-09-25T21:16:40.385Z,10.80
2022-09-25T21:19:14.021Z,8.80
2022-09-25T21:21:42.626Z,10.33
2022-09-25T21:24:13.890Z,9.80
2022-09-25T21:26:42.710Z,13.67
2022-09-25T21:29:12.666Z,6.90
2022-09-25T21:31:46.773Z,7.77
2022-09-25T21:34:20.103Z,9.43
2022-09-25T21:36:49.024Z,11.73
2022-09-25T21:39:17.526Z,7.43
2022-09-25T21:41:45.937Z,6.43
2022-09-25T21:44:17.507Z,8.57
2022-09-25T21:46:46.208Z,7.77
2022-09-25T21:49:21.578Z,12.67
2022-09-25T21:51:50.958Z,8.70
2022-09-25T21:54:19.289Z,10.50
2022-09-25T21:56:49.041Z,6.07
2022-09-25T21:59:17.438Z,8.70
2022-09-25T22:01:45.976Z,8.17
2022-09-25T22:04:15.084Z,9.43
2022-09-25T22:06:47.176Z,12.93
2022-09-25T22:09:17.858Z,9.77
2022-09-25T22:11:47.667Z,5.37
2022-09-25T22:14:16.760Z,5.63
2022-09-25T22:16:47.442Z,9.67
2022-09-25T22:19:19.111Z,7.90
2022-09-25T22:21:50.933Z,4.43
2022-09-25T22:24:19.277Z,4.93
2022-09-25T22:26:49.544Z,10.10
2022-09-25T22:29:18.787Z,8.53
2022-09-25T22:31:46.998Z,9.53
2022-09-25T22:34:18.606Z,5.67
2022-09-25T22:36:48.336Z,5.43
2022-09-25T22:39:19.214Z,7.13
2022-09-25T22:41:50.783Z,6.63
2022-09-25T22:44:19.740Z,5.67
2022-09-25T22:46:47.998Z,7.00
2022-09-25T22:49:16.177Z,9.83
2022-09-25T22:51:44.424Z,6.03
2022-09-25T22:54:15.384Z,7.90
2022-09-25T22:56:44.208Z,6.90
2022-09-25T22:59:16.063Z,7.00
2022-09-25T23:01:47.427Z,8.37
2022-09-25T23:04:18.920Z,7.10
2022-09-25T23:06:47.691Z,6.83
2022-09-25T23:09:19.838Z,5.80
2022-09-25T23:11:48.620Z,8.30
2022-09-25T23:14:19.699Z,7.47
2022-09-25T23:16:50.005Z,7.60
2022-09-25T23:19:18.802Z,6.47
2022-09-25T23:21:47.242Z,8.43
2022-09-25T23:24:19.261Z,4.57
2022-09-25T23:26:47.626Z,6.97
2022-09-25T23:29:17.460Z,5.13
2022-09-25T23:31:46.393Z,6.50
2022-09-25T23:34:15.046Z,7.67
2022-09-25T23:36:43.803Z,9.43
2022-09-25T23:39:16.062Z,3.70
2022-09-25T23:41:45.635Z,10.73
2022-09-25T23:44:14.173Z,5.30
2022-09-25T23:46:44.027Z,7.17
2022-09-25T23:49:12.741Z,5.60
2022-09-25T23:51:41.533Z,7.53
2022-09-25T23:54:10.683Z,8.27
2022-09-25T23:56:39.574Z,8.90
2022-09-25T23:59:10.846Z,6.13
